createdAt,value
2017-09-24T00:00:02.603Z,15.20
2017-09-24T00:02:42.750Z,15.20
2017-09-24T00:05:17.310Z,15.20
2017-09-24T00:07:51.729Z,15.20
2017-09-24T00:10:26.354Z,15.20
2017-09-24T00:13:00.821Z,15.10
2017-09-24T00:15:35.600Z,15.20
2017-09-24T00:18:10.820Z,15.20
2017-09-24T00:20:45.281Z,15.10
2017-09-24T00:23:19.943Z,15.20
2017-09-24T00:25:54.250Z,15.20
2017-09-24T00:28:28.701Z,15.20
2017-09-24T00:31:02.961Z,15.10
2017-09-24T00:33:38.137Z,15.10
2017-09-24T00:36:12.151Z,15.00
2017-09-24T00:38:46.691Z,15.10
2017-09-24T00:41:20.878Z,15.10
2017-09-24T00:43:55.463Z,15.10
2017-09-24T00:46:30.033Z,15.10
2017-09-24T00:49:05.433Z,15.10
2017-09-24T00:51:39.947Z,15.00
2017-09-24T00:54:14.458Z,15.00
2017-09-24T00:56:48.278Z,15.00
2017-09-24T00:59:22.257Z,15.00
2017-09-24T01:01:56.742Z,15.00
2017-09-24T01:04:31.414Z,15.00
2017-09-24T01:07:06.771Z,14.90
2017-09-24T01:09:41.246Z,14.90
2017-09-24T01:12:15.855Z,14.90
2017-09-24T01:14:50.294Z,14.90
2017-09-24T01:17:25.015Z,14.90
2017-09-24T01:19:59.567Z,14.90
2017-09-24T01:22:34.069Z,14.80
2017-09-24T01:25:15.941Z,14.80
2017-09-24T01:27:50.827Z,14.80
2017-09-24T01:30:26.122Z,14.80
2017-09-24T01:33:00.292Z,14.70
2017-09-24T01:35:34.720Z,14.70
2017-09-24T01:38:09.029Z,14.70
2017-09-24T01:40:43.597Z,14.70
2017-09-24T01:43:17.729Z,14.60
2017-09-24T01:45:52.390Z,14.60
2017-09-24T01:48:26.495Z,14.60
2017-09-24T01:51:01.529Z,14.60
2017-09-24T01:53:35.710Z,14.50
2017-09-24T01:56:10.376Z,14.50
2017-09-24T01:58:44.857Z,14.50
2017-09-24T02:01:19.077Z,14.50
2017-09-24T02:03:53.724Z,14.50
2017-09-24T02:06:28.294Z,14.50
2017-09-24T02:09:02.586Z,14.50
2017-09-24T02:11:37.366Z,14.50
2017-09-24T02:14:12.050Z,14.40
2017-09-24T02:16:46.685Z,14.50
2017-09-24T02:19:21.145Z,14.40
2017-09-24T02:21:55.674Z,14.40
2017-09-24T02:24:30.213Z,14.50
2017-09-24T02:27:04.790Z,14.50
2017-09-24T02:29:39.239Z,14.40
2017-09-24T02:32:13.742Z,14.50
2017-09-24T02:34:48.207Z,14.40
2017-09-24T02:37:22.735Z,14.40
2017-09-24T02:39:57.254Z,14.40
2017-09-24T02:42:31.882Z,14.40
2017-09-24T02:45:14.522Z,14.40
2017-09-24T02:47:49.017Z,14.30
2017-09-24T02:50:23.599Z,14.40
2017-09-24T02:52:58.158Z,14.30
2017-09-24T02:55:32.698Z,14.20
2017-09-24T02:58:07.185Z,14.20
2017-09-24T03:00:41.669Z,14.20
2017-09-24T03:03:16.111Z,14.10
2017-09-24T03:05:50.721Z,14.10
2017-09-24T03:08:25.144Z,14.10
2017-09-24T03:10:59.791Z,14.00
2017-09-24T03:13:34.354Z,14.00
2017-09-24T03:16:08.938Z,14.00
2017-09-24T03:18:43.578Z,14.00
2017-09-24T03:21:18.086Z,14.00
2017-09-24T03:23:53.431Z,14.00
2017-09-24T03:26:27.994Z,14.00
2017-09-24T03:29:02.456Z,14.00
2017-09-24T03:31:37.021Z,14.00
2017-09-24T03:34:11.747Z,14.00
2017-09-24T03:36:46.391Z,14.00
2017-09-24T03:39:20.968Z,14.00
2017-09-24T03:41:56.310Z,13.90
2017-09-24T03:44:30.942Z,13.90
2017-09-24T03:47:05.474Z,13.90
2017-09-24T03:49:39.989Z,13.90
2017-09-24T03:52:14.650Z,13.90
2017-09-24T03:54:49.153Z,13.90
2017-09-24T03:57:23.790Z,13.90
2017-09-24T03:59:58.278Z,13.90
2017-09-24T04:02:32.802Z,13.90
2017-09-24T04:05:10.680Z,13.90
2017-09-24T04:07:45.309Z,13.90
2017-09-24T04:10:20.394Z,13.90
2017-09-24T04:12:55.011Z,13.80
2017-09-24T04:15:29.622Z,13.80
2017-09-24T04:18:04.234Z,13.80
2017-09-24T04:20:38.773Z,13.80
2017-09-24T04:23:13.446Z,13.80
2017-09-24T04:25:48.007Z,13.80
2017-09-24T04:28:22.590Z,13.80
2017-09-24T04:30:57.150Z,13.80
2017-09-24T04:33:31.731Z,13.80
2017-09-24T04:36:06.224Z,13.80
2017-09-24T04:38:40.683Z,13.80
2017-09-24T04:41:15.212Z,13.80
2017-09-24T04:43:49.833Z,13.80
2017-09-24T04:46:24.453Z,13.80
2017-09-24T04:48:58.962Z,13.80
2017-09-24T04:51:33.571Z,13.80
2017-09-24T04:54:08.208Z,13.80
2017-09-24T04:56:42.742Z,13.80
2017-09-24T04:59:17.193Z,13.80
2017-09-24T05:01:51.726Z,13.80
2017-09-24T05:04:26.223Z,13.90
2017-09-24T05:07:00.753Z,13.90
2017-09-24T05:09:35.517Z,13.90
2017-09-24T05:12:10.775Z,13.80
2017-09-24T05:14:45.267Z,13.80
2017-09-24T05:17:19.799Z,13.90
2017-09-24T05:19:54.377Z,13.80
2017-09-24T05:22:28.914Z,13.80
2017-09-24T05:25:04.662Z,13.90
2017-09-24T05:27:40.615Z,13.90
2017-09-24T05:30:15.278Z,14.00
2017-09-24T05:32:50.014Z,14.10
2017-09-24T05:35:24.569Z,14.20
2017-09-24T05:37:59.155Z,14.30
2017-09-24T05:40:33.678Z,14.40
2017-09-24T05:43:08.231Z,14.50
2017-09-24T05:45:42.796Z,14.50
2017-09-24T05:48:17.361Z,14.50
2017-09-24T05:50:51.837Z,14.50
2017-09-24T05:53:26.410Z,14.60
2017-09-24T05:56:00.922Z,14.60
2017-09-24T05:58:35.560Z,14.70
2017-09-24T06:01:10.307Z,14.70
2017-09-24T06:03:45.538Z,14.70
2017-09-24T06:06:20.079Z,14.70
2017-09-24T06:08:55.522Z,14.90
2017-09-24T06:11:30.159Z,14.80
2017-09-24T06:14:04.594Z,14.90
2017-09-24T06:16:39.091Z,14.90
2017-09-24T06:19:13.546Z,15.00
2017-09-24T06:21:48.334Z,15.00
2017-09-24T06:24:22.803Z,15.10
2017-09-24T06:26:57.538Z,15.20
2017-09-24T06:29:32.200Z,15.30
2017-09-24T06:32:06.887Z,15.30
2017-09-24T06:34:41.390Z,15.40
2017-09-24T06:37:15.886Z,15.50
2017-09-24T06:39:50.337Z,15.60
2017-09-24T06:42:24.913Z,15.70
2017-09-24T06:44:59.551Z,15.70
2017-09-24T06:47:34.110Z,15.70
2017-09-24T06:50:17.086Z,15.80
2017-09-24T06:52:51.533Z,15.70
2017-09-24T06:55:26.090Z,15.80
2017-09-24T06:58:00.738Z,15.80
2017-09-24T07:00:35.275Z,15.80
2017-09-24T07:03:09.715Z,16.00
2017-09-24T07:05:44.306Z,16.00
2017-09-24T07:08:19.074Z,16.00
2017-09-24T07:10:53.639Z,16.20
2017-09-24T07:13:28.275Z,16.30
2017-09-24T07:16:02.798Z,16.40
2017-09-24T07:18:37.405Z,16.40
2017-09-24T07:21:12.342Z,16.40
2017-09-24T07:23:46.788Z,16.30
2017-09-24T07:26:21.383Z,16.30
2017-09-24T07:28:56.018Z,16.30
2017-09-24T07:31:30.486Z,16.30
2017-09-24T07:34:05.866Z,16.50
2017-09-24T07:36:40.451Z,16.30
2017-09-24T07:39:15.142Z,16.40
2017-09-24T07:41:49.669Z,16.60
2017-09-24T07:44:24.217Z,16.80
2017-09-24T07:46:58.721Z,17.00
2017-09-24T07:49:33.358Z,17.10
2017-09-24T07:52:07.910Z,17.10
2017-09-24T07:54:42.477Z,17.30
2017-09-24T07:57:17.811Z,17.40
2017-09-24T07:59:53.237Z,17.60
2017-09-24T08:02:27.719Z,17.50
2017-09-24T08:05:02.389Z,17.70
2017-09-24T08:07:38.465Z,17.80
2017-09-24T08:10:17.157Z,17.90
2017-09-24T08:12:51.611Z,18.10
2017-09-24T08:15:26.116Z,18.30
2017-09-24T08:18:00.675Z,18.60
2017-09-24T08:20:35.113Z,18.80
2017-09-24T08:23:09.606Z,18.80
2017-09-24T08:25:44.218Z,18.80
2017-09-24T08:28:18.958Z,18.80
2017-09-24T08:30:53.572Z,18.90
2017-09-24T08:33:28.042Z,19.00
2017-09-24T08:36:02.592Z,19.20
2017-09-24T08:38:37.031Z,19.40
2017-09-24T08:41:11.642Z,19.50
2017-09-24T08:43:46.247Z,19.50
2017-09-24T08:46:20.817Z,19.60
2017-09-24T08:48:55.146Z,19.90
2017-09-24T08:51:29.758Z,20.10
2017-09-24T08:54:04.367Z,20.20
2017-09-24T08:56:39.141Z,20.30
2017-09-24T08:59:13.731Z,20.30
2017-09-24T09:01:48.253Z,20.30
2017-09-24T09:04:22.700Z,20.40
2017-09-24T09:06:57.293Z,20.40
2017-09-24T09:09:31.945Z,20.30
2017-09-24T09:12:06.534Z,20.40
2017-09-24T09:14:40.986Z,20.40
2017-09-24T09:17:15.485Z,20.40
2017-09-24T09:19:49.930Z,20.50
2017-09-24T09:22:24.508Z,20.60
2017-09-24T09:24:59.170Z,20.80
2017-09-24T09:27:33.738Z,21.00
2017-09-24T09:30:24.699Z,21.20
2017-09-24T09:33:10.394Z,21.40
2017-09-24T09:35:44.837Z,21.80
2017-09-24T09:38:19.496Z,22.10
2017-09-24T09:40:54.074Z,22.40
2017-09-24T09:43:39.990Z,22.80
2017-09-24T09:46:26.483Z,23.20
2017-09-24T09:49:02.066Z,23.50
2017-09-24T09:51:36.552Z,23.40
2017-09-24T09:54:11.085Z,25.20
2017-09-24T09:56:45.781Z,26.50
2017-09-24T09:59:20.255Z,27.70
2017-09-24T10:01:54.780Z,29.60
2017-09-24T10:04:29.457Z,31.30
2017-09-24T10:07:14.979Z,34.90
2017-09-24T10:10:00.585Z,36.80
2017-09-24T10:12:34.871Z,36.60
2017-09-24T10:15:10.895Z,36.80
2017-09-24T10:17:46.059Z,36.80
2017-09-24T10:20:20.495Z,36.70
2017-09-24T10:22:54.750Z,35.70
2017-09-24T10:25:29.154Z,34.50
2017-09-24T10:28:02.956Z,33.70
2017-09-24T10:33:36.759Z,31.30
2017-09-24T10:36:11.107Z,30.60
2017-09-24T10:38:45.695Z,29.90
2017-09-24T10:41:20.241Z,29.30
2017-09-24T10:43:54.622Z,28.60
2017-09-24T10:46:30.139Z,27.50
2017-09-24T10:49:05.426Z,27.10
2017-09-24T10:51:40.146Z,27.00
2017-09-24T10:54:14.343Z,26.60
2017-09-24T10:56:49.040Z,26.30
2017-09-24T10:59:23.407Z,26.00
2017-09-24T11:01:57.870Z,25.70
2017-09-24T11:04:32.390Z,25.30
2017-09-24T11:07:07.687Z,24.70
2017-09-24T11:09:42.163Z,24.60
2017-09-24T11:12:16.689Z,24.60
2017-09-24T11:14:51.131Z,24.50
2017-09-24T11:17:25.724Z,24.60
2017-09-24T11:20:00.431Z,24.40
2017-09-24T11:22:35.122Z,24.20
2017-09-24T11:25:17.215Z,24.30
2017-09-24T11:27:51.832Z,24.30
2017-09-24T11:30:26.434Z,24.20
2017-09-24T11:33:00.975Z,24.20
2017-09-24T11:35:35.465Z,24.10
2017-09-24T11:38:10.122Z,24.10
2017-09-24T11:40:44.745Z,24.10
2017-09-24T11:43:19.410Z,24.00
2017-09-24T11:45:53.957Z,23.90
2017-09-24T11:48:28.535Z,23.80
2017-09-24T11:51:03.131Z,23.50
2017-09-24T11:53:38.210Z,23.40
2017-09-24T11:56:13.671Z,23.30
2017-09-24T11:58:48.084Z,23.20
2017-09-24T12:01:23.967Z,23.30
2017-09-24T12:03:59.055Z,23.50
2017-09-24T12:06:33.478Z,23.40
2017-09-24T12:09:07.918Z,23.50
2017-09-24T12:11:42.555Z,23.50
2017-09-24T12:14:17.190Z,23.50
2017-09-24T12:16:51.766Z,23.40
2017-09-24T12:19:26.345Z,23.20
2017-09-24T12:22:00.997Z,23.10
2017-09-24T12:24:35.644Z,23.00
2017-09-24T12:27:10.207Z,22.80
2017-09-24T12:29:44.682Z,22.70
2017-09-24T12:32:19.244Z,22.50
2017-09-24T12:34:53.758Z,22.30
2017-09-24T12:37:28.315Z,22.20
2017-09-24T12:40:02.801Z,22.10
2017-09-24T12:42:37.289Z,21.90
2017-09-24T12:45:11.863Z,21.70
2017-09-24T12:47:46.537Z,21.50
2017-09-24T12:50:27.373Z,21.40
2017-09-24T12:53:01.871Z,21.30
2017-09-24T12:55:36.390Z,21.20
2017-09-24T12:58:11.061Z,21.10
2017-09-24T13:00:45.714Z,21.00
2017-09-24T13:03:20.334Z,20.90
2017-09-24T13:05:55.634Z,20.80
2017-09-24T13:08:30.222Z,20.70
2017-09-24T13:11:04.801Z,20.70
2017-09-24T13:13:39.438Z,20.70
2017-09-24T13:16:14.745Z,20.70
2017-09-24T13:18:49.390Z,20.60
2017-09-24T13:21:24.726Z,20.60
2017-09-24T13:23:59.178Z,20.50
2017-09-24T13:26:33.782Z,20.60
2017-09-24T13:29:09.415Z,20.40
2017-09-24T13:31:44.050Z,20.30
2017-09-24T13:34:18.457Z,20.30
2017-09-24T13:36:53.041Z,20.20
2017-09-24T13:39:27.598Z,20.10
2017-09-24T13:42:02.198Z,20.10
2017-09-24T13:44:36.466Z,20.00
2017-09-24T13:47:11.795Z,19.80
2017-09-24T13:49:46.365Z,19.70
2017-09-24T13:52:20.995Z,19.70
2017-09-24T13:54:55.638Z,19.60
2017-09-24T13:57:30.192Z,19.40
2017-09-24T14:00:06.082Z,19.40
2017-09-24T14:02:40.694Z,19.40
2017-09-24T14:05:16.034Z,19.40
2017-09-24T14:07:50.817Z,19.40
2017-09-24T14:10:27.938Z,19.40
2017-09-24T14:13:02.495Z,19.40
2017-09-24T14:15:37.082Z,19.40
2017-09-24T14:18:11.542Z,19.40
2017-09-24T14:20:46.126Z,19.40
2017-09-24T14:23:20.675Z,19.30
2017-09-24T14:25:55.190Z,19.30
2017-09-24T14:28:29.826Z,19.20
2017-09-24T14:31:04.954Z,19.10
2017-09-24T14:33:39.353Z,19.10
2017-09-24T14:36:13.807Z,19.10
2017-09-24T14:38:48.446Z,19.10
2017-09-24T14:41:23.047Z,19.10
2017-09-24T14:43:57.767Z,19.10
2017-09-24T14:46:32.386Z,19.00
2017-09-24T14:49:07.162Z,18.90
2017-09-24T14:51:41.731Z,18.90
2017-09-24T14:54:16.410Z,18.90
2017-09-24T14:56:51.110Z,18.80
2017-09-24T14:59:25.753Z,18.80
2017-09-24T15:02:00.362Z,18.60
2017-09-24T15:04:34.843Z,18.60
2017-09-24T15:07:09.342Z,18.60
2017-09-24T15:09:43.731Z,18.50
2017-09-24T15:12:18.923Z,18.40
2017-09-24T15:14:54.039Z,18.40
2017-09-24T15:17:28.510Z,18.30
2017-09-24T15:20:02.281Z,18.40
2017-09-24T15:22:36.681Z,18.30
2017-09-24T15:25:11.017Z,18.30
2017-09-24T15:27:45.566Z,18.30
2017-09-24T15:30:20.111Z,18.30
2017-09-24T15:32:54.822Z,18.20
2017-09-24T15:35:29.440Z,18.30
2017-09-24T15:38:04.071Z,18.20
2017-09-24T15:40:38.586Z,18.20
2017-09-24T15:43:13.283Z,18.20
2017-09-24T15:45:48.306Z,18.10
2017-09-24T15:48:22.958Z,18.10
2017-09-24T15:50:57.712Z,18.10
2017-09-24T15:53:32.040Z,18.10
2017-09-24T15:56:06.667Z,18.10
2017-09-24T15:58:42.203Z,17.90
2017-09-24T16:01:16.781Z,17.90
2017-09-24T16:03:51.418Z,17.90
2017-09-24T16:06:25.829Z,17.80
2017-09-24T16:09:00.214Z,17.80
2017-09-24T16:11:34.558Z,17.70
2017-09-24T16:14:08.941Z,17.70
2017-09-24T16:16:43.438Z,17.70
2017-09-24T16:19:17.714Z,17.60
2017-09-24T16:21:52.329Z,17.60
2017-09-24T16:24:26.979Z,17.50
2017-09-24T16:27:01.529Z,17.40
2017-09-24T16:29:36.738Z,17.30
2017-09-24T16:32:12.063Z,17.20
2017-09-24T16:34:46.619Z,17.20
2017-09-24T16:37:21.059Z,17.20
2017-09-24T16:39:55.606Z,17.20
2017-09-24T16:42:30.215Z,17.10
2017-09-24T16:45:14.359Z,17.10
2017-09-24T16:47:49.654Z,17.10
2017-09-24T16:50:24.257Z,17.00
2017-09-24T16:52:59.263Z,17.10
2017-09-24T16:55:33.674Z,17.00
2017-09-24T16:58:08.639Z,17.00
2017-09-24T17:00:43.390Z,17.00
2017-09-24T17:03:18.452Z,16.90
2017-09-24T17:05:53.078Z,16.90
2017-09-24T17:08:27.710Z,16.90
2017-09-24T17:11:02.299Z,16.80
2017-09-24T17:13:37.408Z,16.80
2017-09-24T17:16:12.142Z,16.80
2017-09-24T17:18:46.634Z,16.70
2017-09-24T17:21:21.171Z,16.70
2017-09-24T17:23:55.870Z,16.70
2017-09-24T17:26:31.169Z,16.70
2017-09-24T17:29:05.787Z,16.60
2017-09-24T17:31:40.501Z,16.60
2017-09-24T17:34:15.043Z,16.60
2017-09-24T17:36:49.590Z,16.60
2017-09-24T17:39:24.093Z,16.50
2017-09-24T17:41:58.870Z,16.50
2017-09-24T17:44:33.586Z,16.40
2017-09-24T17:47:08.178Z,16.40
2017-09-24T17:49:42.727Z,16.40
2017-09-24T17:52:17.098Z,16.40
2017-09-24T17:54:51.765Z,16.40
2017-09-24T17:57:26.437Z,16.40
2017-09-24T18:00:01.126Z,16.40
2017-09-24T18:02:35.668Z,16.40
2017-09-24T18:05:15.994Z,16.30
2017-09-24T18:07:50.434Z,16.40
2017-09-24T18:10:25.041Z,16.30
2017-09-24T18:12:59.661Z,16.30
2017-09-24T18:15:34.220Z,16.40
2017-09-24T18:18:08.597Z,16.30
2017-09-24T18:20:43.026Z,16.30
2017-09-24T18:23:17.666Z,16.30
2017-09-24T18:25:52.325Z,16.30
2017-09-24T18:28:26.914Z,16.30
2017-09-24T18:31:02.274Z,16.30
2017-09-24T18:33:36.825Z,16.20
2017-09-24T18:36:11.493Z,16.30
2017-09-24T18:38:46.046Z,16.20
2017-09-24T18:41:20.572Z,16.20
2017-09-24T18:43:55.241Z,16.20
2017-09-24T18:46:29.823Z,16.10
2017-09-24T18:49:04.424Z,16.10
2017-09-24T18:51:39.019Z,16.00
2017-09-24T18:54:13.578Z,16.00
2017-09-24T18:56:48.093Z,16.00
2017-09-24T18:59:22.811Z,15.90
2017-09-24T19:01:57.282Z,15.90
2017-09-24T19:04:32.139Z,15.80
2017-09-24T19:07:06.807Z,15.80
2017-09-24T19:09:41.439Z,15.80
2017-09-24T19:12:16.245Z,15.80
2017-09-24T19:14:50.719Z,15.70
2017-09-24T19:17:25.713Z,15.70
2017-09-24T19:20:00.284Z,15.70
2017-09-24T19:22:34.809Z,15.70
2017-09-24T19:25:15.378Z,15.70
2017-09-24T19:27:50.114Z,15.70
2017-09-24T19:30:24.773Z,15.70
2017-09-24T19:32:59.239Z,15.70
2017-09-24T19:35:33.867Z,15.60
2017-09-24T19:38:08.298Z,15.60
2017-09-24T19:40:43.624Z,15.60
2017-09-24T19:43:18.204Z,15.50
2017-09-24T19:45:52.504Z,15.60
2017-09-24T19:48:27.106Z,15.60
2017-09-24T19:51:01.747Z,15.60
2017-09-24T19:53:37.165Z,15.50
2017-09-24T19:56:11.421Z,15.50
2017-09-24T19:58:45.922Z,15.50
2017-09-24T20:01:20.294Z,15.50
2017-09-24T20:03:55.203Z,15.50
2017-09-24T20:06:29.854Z,15.50
2017-09-24T20:09:03.434Z,15.50
2017-09-24T20:11:38.259Z,15.50
2017-09-24T20:14:12.788Z,15.50
2017-09-24T20:16:47.343Z,15.40
2017-09-24T20:19:22.010Z,15.40
2017-09-24T20:21:56.637Z,15.40
2017-09-24T20:24:31.311Z,15.40
2017-09-24T20:27:05.851Z,15.40
2017-09-24T20:29:40.535Z,15.40
2017-09-24T20:32:14.696Z,15.40
2017-09-24T20:34:49.180Z,15.30
2017-09-24T20:37:23.769Z,15.30
2017-09-24T20:39:58.274Z,15.30
2017-09-24T20:42:32.898Z,15.30
2017-09-24T20:45:11.648Z,15.30
2017-09-24T20:47:46.254Z,15.30
2017-09-24T20:50:21.595Z,15.30
2017-09-24T20:52:56.036Z,15.20
2017-09-24T20:55:30.640Z,15.20
2017-09-24T20:58:04.910Z,15.20
2017-09-24T21:00:39.491Z,15.30
2017-09-24T21:03:14.146Z,15.20
2017-09-24T21:05:48.654Z,15.20
2017-09-24T21:08:23.234Z,15.30
2017-09-24T21:10:57.966Z,15.30
2017-09-24T21:13:32.597Z,15.30
2017-09-24T21:16:07.266Z,15.20
2017-09-24T21:18:41.929Z,15.30
2017-09-24T21:21:16.518Z,15.30
2017-09-24T21:23:50.823Z,15.30
2017-09-24T21:26:25.330Z,15.30
2017-09-24T21:28:59.777Z,15.30
2017-09-24T21:31:34.318Z,15.30
2017-09-24T21:34:08.892Z,15.30
2017-09-24T21:36:43.606Z,15.30
2017-09-24T21:39:18.066Z,15.40
2017-09-24T21:41:52.629Z,15.40
2017-09-24T21:44:27.159Z,15.40
2017-09-24T21:47:01.753Z,15.30
2017-09-24T21:49:36.388Z,15.30
2017-09-24T21:52:10.899Z,15.40
2017-09-24T21:54:45.665Z,15.40
2017-09-24T21:57:20.225Z,15.30
2017-09-24T21:59:54.690Z,15.30
2017-09-24T22:02:29.187Z,15.40
2017-09-24T22:05:04.493Z,15.40
2017-09-24T22:07:41.628Z,15.40
2017-09-24T22:10:16.069Z,15.40
2017-09-24T22:12:50.634Z,15.40
2017-09-24T22:15:25.218Z,15.40
2017-09-24T22:17:59.662Z,15.40
2017-09-24T22:20:34.225Z,15.40
2017-09-24T22:23:08.742Z,15.40
2017-09-24T22:25:43.243Z,15.40
2017-09-24T22:28:17.814Z,15.40
2017-09-24T22:30:52.331Z,15.40
2017-09-24T22:33:26.971Z,15.40
2017-09-24T22:36:01.450Z,15.40
2017-09-24T22:38:36.113Z,15.40
2017-09-24T22:41:10.687Z,15.40
2017-09-24T22:43:45.272Z,15.40
2017-09-24T22:46:19.875Z,15.40
2017-09-24T22:48:54.707Z,15.40
2017-09-24T22:51:29.345Z,15.40
2017-09-24T22:54:04.546Z,15.30
2017-09-24T22:56:38.922Z,15.30
2017-09-24T22:59:13.502Z,15.30
2017-09-24T23:01:48.054Z,15.30
2017-09-24T23:04:22.674Z,15.30
2017-09-24T23:06:57.221Z,15.30
2017-09-24T23:09:32.622Z,15.20
2017-09-24T23:12:07.258Z,15.20
2017-09-24T23:14:42.675Z,15.20
2017-09-24T23:17:17.389Z,15.20
2017-09-24T23:19:51.764Z,15.20
2017-09-24T23:22:25.654Z,15.20
2017-09-24T23:25:00.269Z,15.20
2017-09-24T23:27:34.882Z,15.20
2017-09-24T23:30:16.042Z,15.20
2017-09-24T23:32:50.596Z,15.20
2017-09-24T23:35:25.855Z,15.20
2017-09-24T23:38:00.772Z,15.20
2017-09-24T23:40:35.450Z,15.20
2017-09-24T23:43:10.071Z,15.20
2017-09-24T23:45:44.585Z,15.20
2017-09-24T23:48:19.103Z,15.20
2017-09-24T23:50:53.688Z,15.20
2017-09-24T23:53:28.730Z,15.20
2017-09-24T23:56:03.287Z,15.20
2017-09-24T23:58:37.983Z,15.20
